Time;durP1;ratioP1;P1;durP2;ratioP2;P2;SDS_P1;SDS_P2;PMS_P1;PMS_P2;Temp;Humidity;BMP_temperature;BMP_pressure;BME280_temperature;BME280_humidity;BME280_pressure;Samples;Min_cycle;Max_cycle;Signal;HPM_P1;HPM_P2
2022/03/19 00:01:25;;;;;;;13.70;8.57;;;;;;;;;;5136228;27;20195;-85
2022/03/19 00:03:53;;;;;;;15.33;9.40;;;;;;;;;;5135579;27;20244;-85
2022/03/19 00:06:20;;;;;;;15.10;9.17;;;;;;;;;;5135753;27;20244;-85
2022/03/19 00:08:48;;;;;;;13.03;8.50;;;;;;;;;;5136088;27;20203;-84
2022/03/19 00:11:16;;;;;;;18.40;9.53;;;;;;;;;;5135664;27;20199;-85
2022/03/19 00:13:44;;;;;;;12.27;8.63;;;;;;;;;;5134721;27;20191;-84
2022/03/19 00:16:12;;;;;;;11.93;8.23;;;;;;;;;;5134746;27;20273;-85
2022/03/19 00:18:39;;;;;;;12.47;8.00;;;;;;;;;;5135736;27;20214;-85
2022/03/19 00:21:07;;;;;;;9.87;7.20;;;;;;;;;;5135376;27;20277;-85
2022/03/19 00:23:35;;;;;;;9.50;7.50;;;;;;;;;;5135482;27;20548;-85
2022/03/19 00:26:02;;;;;;;12.83;8.20;;;;;;;;;;5135133;27;20226;-85
2022/03/19 00:28:30;;;;;;;10.40;7.33;;;;;;;;;;5135348;27;20286;-85
2022/03/19 00:30:58;;;;;;;11.07;7.80;;;;;;;;;;5135589;27;20579;-85
2022/03/19 00:33:26;;;;;;;9.90;7.37;;;;;;;;;;5135140;27;20732;-85
2022/03/19 00:35:53;;;;;;;9.17;7.03;;;;;;;;;;5135139;27;20659;-85
2022/03/19 00:38:20;;;;;;;9.13;6.97;;;;;;;;;;5135075;27;20191;-84
2022/03/19 00:40:49;;;;;;;9.63;7.40;;;;;;;;;;5132956;27;20293;-84
2022/03/19 00:43:17;;;;;;;9.57;6.97;;;;;;;;;;5134631;27;20194;-84
2022/03/19 00:45:44;;;;;;;7.97;6.97;;;;;;;;;;5134403;27;20314;-85
2022/03/19 00:48:13;;;;;;;9.73;7.70;;;;;;;;;;5135087;27;20236;-84
2022/03/19 00:50:40;;;;;;;14.03;8.43;;;;;;;;;;5134877;27;20575;-85
2022/03/19 00:53:07;;;;;;;9.17;8.27;;;;;;;;;;5134804;27;20199;-85
2022/03/19 00:55:34;;;;;;;9.47;7.70;;;;;;;;;;5134221;27;20194;-84
2022/03/19 00:58:02;;;;;;;9.33;7.20;;;;;;;;;;5134826;27;20289;-85
2022/03/19 01:00:29;;;;;;;7.70;6.43;;;;;;;;;;5134542;27;20659;-85
2022/03/19 01:02:57;;;;;;;9.63;6.27;;;;;;;;;;5134617;27;20197;-85
2022/03/19 01:05:26;;;;;;;12.10;6.70;;;;;;;;;;5134349;27;20333;-85
2022/03/19 01:07:55;;;;;;;7.33;6.37;;;;;;;;;;5134889;27;20625;-84
2022/03/19 01:10:24;;;;;;;9.77;6.03;;;;;;;;;;5134237;27;20293;-85
2022/03/19 01:12:53;;;;;;;8.73;5.73;;;;;;;;;;5134819;27;20278;-85
2022/03/19 01:15:20;;;;;;;7.63;5.53;;;;;;;;;;5133887;27;20241;-84
2022/03/19 01:17:48;;;;;;;6.70;5.27;;;;;;;;;;5134396;27;20240;-85
2022/03/19 01:20:17;;;;;;;6.17;4.63;;;;;;;;;;5134010;27;20190;-84
2022/03/19 01:22:47;;;;;;;6.43;5.37;;;;;;;;;;5134206;27;20285;-83
2022/03/19 01:25:15;;;;;;;8.23;5.37;;;;;;;;;;5134113;27;20293;-83
2022/03/19 01:27:43;;;;;;;5.27;4.57;;;;;;;;;;5134248;27;20738;-83
2022/03/19 01:30:12;;;;;;;6.20;5.60;;;;;;;;;;5134368;27;20195;-83
2022/03/19 01:32:40;;;;;;;7.37;5.03;;;;;;;;;;5134010;27;20283;-83
2022/03/19 01:35:07;;;;;;;5.93;5.20;;;;;;;;;;5134013;27;20265;-83
2022/03/19 01:37:35;;;;;;;5.77;4.43;;;;;;;;;;5134035;27;20236;-83
2022/03/19 01:40:04;;;;;;;6.37;5.00;;;;;;;;;;5134163;27;20247;-83
2022/03/19 01:42:34;;;;;;;6.00;4.93;;;;;;;;;;5134256;27;20216;-83
2022/03/19 01:45:02;;;;;;;6.13;5.40;;;;;;;;;;5133779;27;20662;-83
2022/03/19 01:47:31;;;;;;;6.83;4.87;;;;;;;;;;5133874;27;20244;-83
2022/03/19 01:49:59;;;;;;;6.47;4.80;;;;;;;;;;5133558;27;20201;-84
2022/03/19 01:52:28;;;;;;;6.23;5.03;;;;;;;;;;5134017;27;20201;-83
2022/03/19 01:54:55;;;;;;;5.17;4.63;;;;;;;;;;5132603;27;20198;-82
2022/03/19 01:57:26;;;;;;;8.80;4.93;;;;;;;;;;5133639;27;20191;-83
2022/03/19 01:59:54;;;;;;;4.93;4.43;;;;;;;;;;5133468;27;20183;-83
2022/03/19 02:02:24;;;;;;;7.13;5.43;;;;;;;;;;5133708;27;20213;-83
2022/03/19 02:04:52;;;;;;;6.77;4.70;;;;;;;;;;5133568;27;20222;-83
2022/03/19 02:07:19;;;;;;;7.83;4.70;;;;;;;;;;5133426;27;20199;-83
2022/03/19 02:09:47;;;;;;;5.07;4.57;;;;;;;;;;5133415;27;20187;-83
2022/03/19 02:12:14;;;;;;;6.67;5.30;;;;;;;;;;5133326;27;20722;-83
2022/03/19 02:14:44;;;;;;;5.87;5.23;;;;;;;;;;5133219;27;20734;-83
2022/03/19 02:17:11;;;;;;;5.80;5.10;;;;;;;;;;5133229;27;20206;-83
2022/03/19 02:19:48;;;;;;;7.77;4.83;;;;;;;;;;5132841;27;20289;-83
2022/03/19 02:22:15;;;;;;;6.37;4.90;;;;;;;;;;5133240;27;20190;-83
2022/03/19 02:27:28;;;;;;;6.33;5.40;;;;;;;;;;5133414;27;20753;-84
2022/03/19 02:29:56;;;;;;;5.90;5.30;;;;;;;;;;5133002;27;20194;-83
2022/03/19 02:32:24;;;;;;;6.03;5.07;;;;;;;;;;5132873;27;20199;-83
2022/03/19 02:34:52;;;;;;;6.03;4.90;;;;;;;;;;5132900;27;20273;-82
2022/03/19 02:37:19;;;;;;;5.17;4.67;;;;;;;;;;5133033;27;20245;-82
2022/03/19 02:39:48;;;;;;;7.20;5.27;;;;;;;;;;5132881;27;20199;-83
2022/03/19 02:42:18;;;;;;;7.80;5.07;;;;;;;;;;5133011;27;20281;-83
2022/03/19 02:44:45;;;;;;;5.70;4.67;;;;;;;;;;5132842;27;20222;-83
2022/03/19 02:47:13;;;;;;;7.20;4.87;;;;;;;;;;5133232;27;20607;-83
2022/03/19 02:49:40;;;;;;;5.53;5.00;;;;;;;;;;5132528;27;20694;-83
2022/03/19 02:52:08;;;;;;;5.57;5.00;;;;;;;;;;5133272;27;20237;-83
2022/03/19 02:54:35;;;;;;;7.07;4.67;;;;;;;;;;5132975;27;20281;-83
2022/03/19 02:57:04;;;;;;;6.80;5.10;;;;;;;;;;5132614;27;20290;-83
2022/03/19 02:59:33;;;;;;;6.13;5.53;;;;;;;;;;5132980;27;20195;-82
2022/03/19 03:02:01;;;;;;;6.37;5.07;;;;;;;;;;5133078;27;20191;-83
2022/03/19 03:04:29;;;;;;;6.90;5.67;;;;;;;;;;5132550;27;20194;-83
2022/03/19 03:06:58;;;;;;;6.23;5.33;;;;;;;;;;5134166;27;20199;-83
2022/03/19 03:09:27;;;;;;;7.23;5.53;;;;;;;;;;5136682;27;20211;-83
2022/03/19 03:11:54;;;;;;;9.13;6.20;;;;;;;;;;5136897;27;20270;-83
2022/03/19 03:14:23;;;;;;;7.47;5.50;;;;;;;;;;5136873;27;20282;-82
2022/03/19 03:16:51;;;;;;;8.33;5.97;;;;;;;;;;5136864;27;20229;-82
2022/03/19 03:19:19;;;;;;;11.77;5.67;;;;;;;;;;5136429;27;20205;-82
2022/03/19 03:21:47;;;;;;;7.27;5.90;;;;;;;;;;5136654;27;20226;-83
2022/03/19 03:24:14;;;;;;;6.40;5.80;;;;;;;;;;5136390;27;20198;-82
2022/03/19 03:26:42;;;;;;;9.67;5.53;;;;;;;;;;5136809;27;20603;-83
2022/03/19 03:29:10;;;;;;;6.67;5.67;;;;;;;;;;5136391;27;20293;-82
2022/03/19 03:31:38;;;;;;;6.27;5.17;;;;;;;;;;5136567;27;20191;-83
2022/03/19 03:34:06;;;;;;;7.47;5.00;;;;;;;;;;5136206;27;20655;-83
2022/03/19 03:36:34;;;;;;;6.00;5.30;;;;;;;;;;5136054;27;20199;-82
2022/03/19 03:39:01;;;;;;;7.23;5.70;;;;;;;;;;5136238;27;20222;-83
2022/03/19 03:41:28;;;;;;;5.40;4.70;;;;;;;;;;5136268;27;20670;-82
2022/03/19 03:43:56;;;;;;;5.37;4.57;;;;;;;;;;5136423;27;20218;-82
2022/03/19 03:46:23;;;;;;;5.67;4.60;;;;;;;;;;5136078;27;20662;-85
2022/03/19 03:48:51;;;;;;;5.07;4.53;;;;;;;;;;5136141;27;20281;-82
2022/03/19 03:51:19;;;;;;;7.43;5.40;;;;;;;;;;5135997;27;20279;-82
2022/03/19 03:53:46;;;;;;;6.67;4.87;;;;;;;;;;5136323;27;20195;-82
2022/03/19 03:56:14;;;;;;;6.30;5.70;;;;;;;;;;5135808;27;20190;-82
2022/03/19 03:58:41;;;;;;;5.77;5.03;;;;;;;;;;5135653;27;20234;-82
2022/03/19 04:01:09;;;;;;;6.10;5.10;;;;;;;;;;5135705;27;20686;-82
2022/03/19 04:03:36;;;;;;;5.87;5.27;;;;;;;;;;5135831;27;20191;-82
2022/03/19 04:06:05;;;;;;;4.93;4.47;;;;;;;;;;5135772;27;20305;-82
2022/03/19 04:08:32;;;;;;;6.47;5.13;;;;;;;;;;5135537;27;20195;-82
2022/03/19 04:11:00;;;;;;;5.80;5.10;;;;;;;;;;5135440;27;20281;-82
2022/03/19 04:13:27;;;;;;;6.87;5.87;;;;;;;;;;5135674;27;20195;-82
2022/03/19 04:15:54;;;;;;;6.40;5.43;;;;;;;;;;5135476;27;20197;-81
2022/03/19 04:18:21;;;;;;;6.70;4.90;;;;;;;;;;5134663;27;20205;-82
2022/03/19 04:20:49;;;;;;;5.83;4.87;;;;;;;;;;5135335;27;20278;-82
2022/03/19 04:23:17;;;;;;;7.30;4.60;;;;;;;;;;5135506;27;20195;-82
2022/03/19 04:25:45;;;;;;;6.80;5.03;;;;;;;;;;5135392;27;20604;-82
2022/03/19 04:28:12;;;;;;;8.37;5.27;;;;;;;;;;5135365;27;20285;-81
2022/03/19 04:30:40;;;;;;;6.00;5.03;;;;;;;;;;5134891;27;20628;-81
2022/03/19 04:33:08;;;;;;;7.77;5.33;;;;;;;;;;5135103;27;20710;-82
2022/03/19 04:38:23;;;;;;;7.03;6.33;;;;;;;;;;5135501;27;20232;-82
2022/03/19 04:40:51;;;;;;;6.13;5.13;;;;;;;;;;5134784;27;20193;-81
2022/03/19 04:43:19;;;;;;;55.17;30.37;;;;;;;;;;5135354;27;20274;-81
2022/03/19 04:45:46;;;;;;;8.77;6.57;;;;;;;;;;5135039;27;20226;-81
2022/03/19 04:48:13;;;;;;;7.17;5.67;;;;;;;;;;5134954;27;20230;-81
2022/03/19 04:50:42;;;;;;;7.73;5.10;;;;;;;;;;5134765;27;20278;-82
2022/03/19 04:53:10;;;;;;;5.43;4.80;;;;;;;;;;5134566;27;20282;-81
2022/03/19 04:55:40;;;;;;;6.63;4.83;;;;;;;;;;5135026;27;20278;-81
2022/03/19 04:58:08;;;;;;;5.00;3.83;;;;;;;;;;5134991;27;20629;-82
2022/03/19 05:00:37;;;;;;;6.53;4.70;;;;;;;;;;5134546;27;20205;-81
2022/03/19 05:03:04;;;;;;;6.73;5.37;;;;;;;;;;5134705;27;20566;-81
2022/03/19 05:05:31;;;;;;;7.17;4.70;;;;;;;;;;5134333;27;20231;-81
2022/03/19 05:07:59;;;;;;;6.63;5.93;;;;;;;;;;5134776;27;20201;-81
2022/03/19 05:13:12;;;;;;;7.93;5.80;;;;;;;;;;5134600;27;20643;-81
2022/03/19 05:15:39;;;;;;;5.83;5.13;;;;;;;;;;5134553;27;20632;-81
2022/03/19 05:18:06;;;;;;;12.87;6.83;;;;;;;;;;5134743;27;20202;-81
2022/03/19 05:20:33;;;;;;;16.20;11.47;;;;;;;;;;5133957;27;20201;-81
2022/03/19 05:23:01;;;;;;;8.80;7.67;;;;;;;;;;5134649;27;20190;-81
2022/03/19 05:25:28;;;;;;;10.27;7.20;;;;;;;;;;5133960;27;20478;-81
2022/03/19 05:27:55;;;;;;;8.53;6.57;;;;;;;;;;5134490;27;20277;-81
2022/03/19 05:30:24;;;;;;;7.70;6.63;;;;;;;;;;5133734;27;20199;-80
2022/03/19 05:32:51;;;;;;;7.17;4.77;;;;;;;;;;5134178;27;20329;-83
2022/03/19 05:35:19;;;;;;;6.40;5.80;;;;;;;;;;5134080;27;20269;-82
2022/03/19 05:37:47;;;;;;;5.77;5.07;;;;;;;;;;5134314;27;20619;-82
2022/03/19 05:40:15;;;;;;;7.37;5.50;;;;;;;;;;5133795;27;20678;-82
2022/03/19 05:42:42;;;;;;;8.37;6.33;;;;;;;;;;5133999;27;20195;-82
2022/03/19 05:45:10;;;;;;;6.10;5.50;;;;;;;;;;5133673;27;20201;-82
2022/03/19 05:47:40;;;;;;;8.57;5.87;;;;;;;;;;5133748;27;20218;-83
2022/03/19 05:50:08;;;;;;;7.23;5.63;;;;;;;;;;5133551;27;20230;-82
2022/03/19 05:52:35;;;;;;;8.40;7.50;;;;;;;;;;5133762;27;20579;-82
2022/03/19 05:55:03;;;;;;;12.73;5.40;;;;;;;;;;5133473;27;20281;-81
2022/03/19 05:57:30;;;;;;;8.73;5.93;;;;;;;;;;5133703;27;20701;-81
2022/03/19 05:59:58;;;;;;;5.30;4.80;;;;;;;;;;5133396;27;20281;-81
2022/03/19 06:02:25;;;;;;;8.23;5.73;;;;;;;;;;5133330;27;20226;-81
2022/03/19 06:04:54;;;;;;;6.67;5.87;;;;;;;;;;5133567;27;20293;-81
2022/03/19 06:07:21;;;;;;;7.43;5.03;;;;;;;;;;5133460;27;20222;-82
2022/03/19 06:09:48;;;;;;;6.80;5.40;;;;;;;;;;5133144;27;20186;-82
2022/03/19 06:12:16;;;;;;;7.93;4.80;;;;;;;;;;5133731;27;20194;-82
2022/03/19 06:14:43;;;;;;;7.07;4.53;;;;;;;;;;5132990;27;20195;-82
2022/03/19 06:17:10;;;;;;;5.90;5.30;;;;;;;;;;5133623;27;20428;-83
2022/03/19 06:19:37;;;;;;;9.30;6.37;;;;;;;;;;5133413;27;20444;-83
2022/03/19 06:22:06;;;;;;;9.50;7.53;;;;;;;;;;5133473;27;20680;-83
2022/03/19 06:24:33;;;;;;;11.10;7.00;;;;;;;;;;5133033;27;20201;-84
2022/03/19 06:27:00;;;;;;;8.37;4.83;;;;;;;;;;5133222;27;20228;-84
2022/03/19 06:29:28;;;;;;;5.53;4.50;;;;;;;;;;5133081;27;20199;-85
2022/03/19 06:31:55;;;;;;;5.77;5.17;;;;;;;;;;5133314;27;20183;-85
2022/03/19 06:34:22;;;;;;;5.30;4.80;;;;;;;;;;5132834;27;20702;-85
2022/03/19 06:39:35;;;;;;;10.10;7.33;;;;;;;;;;5133369;27;20174;-85
2022/03/19 06:42:02;;;;;;;10.23;5.47;;;;;;;;;;5133141;27;20228;-85
2022/03/19 06:44:30;;;;;;;7.33;5.63;;;;;;;;;;5133212;27;20191;-85
2022/03/19 06:46:57;;;;;;;7.20;5.50;;;;;;;;;;5133097;27;20759;-86
2022/03/19 06:49:26;;;;;;;80.37;40.70;;;;;;;;;;5133060;27;20205;-86
2022/03/19 06:51:53;;;;;;;31.70;17.93;;;;;;;;;;5133369;28;20638;-85
2022/03/19 06:54:20;;;;;;;46.40;26.33;;;;;;;;;;5132966;28;20293;-87
2022/03/19 06:56:49;;;;;;;32.57;18.60;;;;;;;;;;5132934;27;20205;-85
2022/03/19 06:59:16;;;;;;;15.77;10.53;;;;;;;;;;5133213;28;20199;-85
2022/03/19 07:01:43;;;;;;;28.97;17.97;;;;;;;;;;5132969;27;20205;-85
2022/03/19 07:04:11;;;;;;;11.93;7.63;;;;;;;;;;5133475;28;20274;-85
2022/03/19 07:06:38;;;;;;;10.97;7.73;;;;;;;;;;5132997;27;20713;-85
2022/03/19 07:09:05;;;;;;;7.27;5.90;;;;;;;;;;5133018;27;20558;-85
2022/03/19 07:11:35;;;;;;;9.17;6.57;;;;;;;;;;5133096;27;20685;-85
2022/03/19 07:14:08;;;;;;;6.77;4.77;;;;;;;;;;5131490;27;20209;-84
2022/03/19 07:16:37;;;;;;;8.50;6.67;;;;;;;;;;5132594;27;20274;-85
2022/03/19 07:19:04;;;;;;;8.60;6.33;;;;;;;;;;5132593;27;20202;-84
2022/03/19 07:21:31;;;;;;;7.00;5.93;;;;;;;;;;5132701;27;20593;-86
2022/03/19 07:23:58;;;;;;;7.53;5.40;;;;;;;;;;5132612;27;20203;-82
2022/03/19 07:26:26;;;;;;;8.80;5.27;;;;;;;;;;5132173;27;20694;-83
2022/03/19 07:28:54;;;;;;;8.33;5.77;;;;;;;;;;5127569;27;20568;-84
2022/03/19 07:31:22;;;;;;;8.80;7.13;;;;;;;;;;5122964;28;20208;-85
2022/03/19 07:33:50;;;;;;;6.60;4.60;;;;;;;;;;5132116;28;20609;-84
2022/03/19 07:36:19;;;;;;;8.40;6.43;;;;;;;;;;5132710;27;20191;-86
2022/03/19 07:38:47;;;;;;;9.13;5.93;;;;;;;;;;5133115;27;20194;-84
2022/03/19 07:43:59;;;;;;;17.23;9.53;;;;;;;;;;5132565;28;20178;-85
2022/03/19 07:46:28;;;;;;;9.07;5.93;;;;;;;;;;5132332;28;20229;-85
2022/03/19 07:48:55;;;;;;;8.57;5.97;;;;;;;;;;5132057;27;20191;-84
2022/03/19 07:51:22;;;;;;;7.53;5.47;;;;;;;;;;5132289;28;20187;-85
2022/03/19 07:53:50;;;;;;;6.30;5.20;;;;;;;;;;5133767;27;20190;-85
2022/03/19 07:56:17;;;;;;;6.00;4.97;;;;;;;;;;5136070;27;20194;-85
2022/03/19 07:58:49;;;;;;;5.13;4.63;;;;;;;;;;5135884;27;20615;-84
2022/03/19 08:01:17;;;;;;;5.37;4.57;;;;;;;;;;5135945;27;20189;-85
2022/03/19 08:03:46;;;;;;;5.10;4.70;;;;;;;;;;5135682;27;20183;-84
2022/03/19 08:06:14;;;;;;;5.00;4.50;;;;;;;;;;5135732;27;20240;-84
2022/03/19 08:08:42;;;;;;;5.43;4.63;;;;;;;;;;5135618;27;20229;-84
2022/03/19 08:11:09;;;;;;;4.07;3.67;;;;;;;;;;5135778;27;20198;-85
2022/03/19 08:13:37;;;;;;;10.07;6.70;;;;;;;;;;5135442;27;20727;-84
2022/03/19 08:16:05;;;;;;;9.87;4.50;;;;;;;;;;5135758;27;20197;-84
2022/03/19 08:18:32;;;;;;;4.50;3.80;;;;;;;;;;5135638;27;20667;-84
2022/03/19 08:21:01;;;;;;;5.37;4.87;;;;;;;;;;5135556;27;20201;-84
2022/03/19 08:23:28;;;;;;;5.17;4.33;;;;;;;;;;5135516;27;20290;-85
2022/03/19 08:25:55;;;;;;;6.47;3.60;;;;;;;;;;5135673;27;20195;-84
2022/03/19 08:28:23;;;;;;;4.10;3.73;;;;;;;;;;5135249;27;20229;-84
2022/03/19 08:30:50;;;;;;;4.37;3.87;;;;;;;;;;5135645;27;20233;-84
2022/03/19 08:33:17;;;;;;;5.60;4.23;;;;;;;;;;5135242;27;20279;-85
2022/03/19 08:35:44;;;;;;;3.53;3.23;;;;;;;;;;5135018;27;20286;-84
2022/03/19 08:40:58;;;;;;;5.53;3.80;;;;;;;;;;5135479;27;20692;-85
2022/03/19 08:43:25;;;;;;;4.30;3.90;;;;;;;;;;5135217;27;20199;-85
2022/03/19 08:45:53;;;;;;;4.80;4.23;;;;;;;;;;5135051;27;20229;-85
2022/03/19 08:48:21;;;;;;;5.90;4.23;;;;;;;;;;5135075;27;20217;-84
2022/03/19 08:50:48;;;;;;;5.00;3.70;;;;;;;;;;5135110;27;20194;-84
2022/03/19 08:53:17;;;;;;;7.60;4.20;;;;;;;;;;5135198;27;20851;-84
2022/03/19 08:55:45;;;;;;;4.23;3.73;;;;;;;;;;5134779;27;20202;-84
2022/03/19 08:58:13;;;;;;;4.73;3.40;;;;;;;;;;5135084;27;20735;-85
2022/03/19 09:00:41;;;;;;;6.80;4.83;;;;;;;;;;5134774;27;20193;-84
2022/03/19 09:03:08;;;;;;;3.87;3.47;;;;;;;;;;5134571;27;20199;-84
2022/03/19 09:05:35;;;;;;;6.23;4.63;;;;;;;;;;5134543;27;20198;-85
2022/03/19 09:08:02;;;;;;;4.77;4.17;;;;;;;;;;5134983;27;20218;-85
2022/03/19 09:10:31;;;;;;;5.37;4.80;;;;;;;;;;5134298;27;20199;-84
2022/03/19 09:12:59;;;;;;;6.10;4.97;;;;;;;;;;5133135;27;20659;-83
2022/03/19 09:15:26;;;;;;;4.77;4.27;;;;;;;;;;5134522;27;20190;-81
2022/03/19 09:17:54;;;;;;;6.40;5.67;;;;;;;;;;5134388;27;20281;-84
2022/03/19 09:20:23;;;;;;;3.73;3.23;;;;;;;;;;5132680;27;20190;-83
2022/03/19 09:23:04;;;;;;;4.93;3.97;;;;;;;;;;5133829;27;20240;-83
2022/03/19 09:25:34;;;;;;;5.50;5.00;;;;;;;;;;5133198;27;20190;-84
2022/03/19 09:28:01;;;;;;;4.20;3.50;;;;;;;;;;5133907;27;20229;-83
2022/03/19 09:30:28;;;;;;;4.87;3.83;;;;;;;;;;5133915;27;20290;-82
2022/03/19 09:32:57;;;;;;;4.73;4.27;;;;;;;;;;5134010;27;20233;-84
2022/03/19 09:35:25;;;;;;;6.00;4.40;;;;;;;;;;5134389;27;20281;-88
2022/03/19 09:37:52;;;;;;;6.97;5.03;;;;;;;;;;5134506;27;20663;-88
2022/03/19 09:40:20;;;;;;;4.70;4.23;;;;;;;;;;5134698;27;20202;-87
2022/03/19 09:42:50;;;;;;;3.47;3.17;;;;;;;;;;5134670;27;20585;-88
2022/03/19 09:45:20;;;;;;;4.57;3.90;;;;;;;;;;5134789;27;20663;-88
2022/03/19 09:47:47;;;;;;;6.17;3.93;;;;;;;;;;5135348;27;20215;-89
2022/03/19 09:50:14;;;;;;;6.37;4.37;;;;;;;;;;5134834;27;20206;-89
2022/03/19 09:52:42;;;;;;;5.33;4.83;;;;;;;;;;5134622;27;20205;-89
2022/03/19 09:55:14;;;;;;;4.37;3.97;;;;;;;;;;5134821;27;20198;-89
2022/03/19 09:57:41;;;;;;;6.73;4.43;;;;;;;;;;5134256;27;20183;-86
2022/03/19 10:00:11;;;;;;;4.60;4.17;;;;;;;;;;5133447;27;20201;-86
2022/03/19 10:02:51;;;;;;;5.00;4.50;;;;;;;;;;5133594;27;20199;-86
2022/03/19 10:10:49;;;;;;;6.23;4.63;;;;;;;;;;5133587;27;20760;-86
2022/03/19 10:13:16;;;;;;;5.80;4.33;;;;;;;;;;5133495;27;20663;-86
2022/03/19 10:15:57;;;;;;;5.23;4.30;;;;;;;;;;5132853;27;20210;-86
2022/03/19 10:18:28;;;;;;;9.83;6.17;;;;;;;;;;5134743;27;20198;-86
2022/03/19 10:20:56;;;;;;;6.17;5.53;;;;;;;;;;5133561;27;20714;-86
2022/03/19 10:23:34;;;;;;;12.43;8.07;;;;;;;;;;5133440;27;20205;-86
2022/03/19 10:26:01;;;;;;;7.87;4.23;;;;;;;;;;5134793;27;20685;-87
2022/03/19 10:28:32;;;;;;;4.73;4.03;;;;;;;;;;5133053;27;20215;-86
2022/03/19 10:31:01;;;;;;;5.77;4.93;;;;;;;;;;5133297;27;20188;-86
2022/03/19 10:33:31;;;;;;;4.20;3.90;;;;;;;;;;5132964;27;20230;-86
2022/03/19 10:36:08;;;;;;;4.80;4.27;;;;;;;;;;5133283;27;20244;-87
2022/03/19 10:38:44;;;;;;;6.03;5.43;;;;;;;;;;5133263;27;20191;-86
2022/03/19 10:41:11;;;;;;;7.13;4.60;;;;;;;;;;5133127;27;20190;-84
2022/03/19 10:43:39;;;;;;;5.00;4.47;;;;;;;;;;5133081;27;20194;-85
2022/03/19 10:46:08;;;;;;;4.53;3.97;;;;;;;;;;5132960;27;20190;-85
2022/03/19 10:48:35;;;;;;;3.97;3.63;;;;;;;;;;5132998;27;20226;-84
2022/03/19 10:51:03;;;;;;;6.27;4.67;;;;;;;;;;5133002;27;20191;-85
2022/03/19 10:53:30;;;;;;;4.53;3.97;;;;;;;;;;5132650;27;20201;-85
2022/03/19 10:55:57;;;;;;;4.90;3.87;;;;;;;;;;5133036;28;20193;-85
2022/03/19 10:58:24;;;;;;;4.57;3.73;;;;;;;;;;5133299;27;20579;-85
2022/03/19 11:00:53;;;;;;;6.40;5.40;;;;;;;;;;5132873;27;20183;-86
2022/03/19 11:03:27;;;;;;;11.20;5.13;;;;;;;;;;5132917;27;20187;-85
2022/03/19 11:05:57;;;;;;;6.00;5.03;;;;;;;;;;5132746;27;20191;-86
2022/03/19 11:08:25;;;;;;;4.43;4.03;;;;;;;;;;5132556;27;20209;-84
2022/03/19 11:10:54;;;;;;;4.50;4.10;;;;;;;;;;5132784;27;20198;-85
2022/03/19 11:13:22;;;;;;;4.33;3.93;;;;;;;;;;5132926;27;20201;-85
2022/03/19 11:15:54;;;;;;;7.27;4.73;;;;;;;;;;5132629;27;20187;-86
2022/03/19 11:18:23;;;;;;;5.03;4.53;;;;;;;;;;5132752;27;20183;-84
2022/03/19 11:20:51;;;;;;;5.10;4.10;;;;;;;;;;5132642;27;20212;-86
2022/03/19 11:23:29;;;;;;;5.00;4.50;;;;;;;;;;5132914;27;20627;-85
2022/03/19 11:25:57;;;;;;;4.90;4.50;;;;;;;;;;5131586;27;20175;-85
2022/03/19 11:28:25;;;;;;;5.90;4.57;;;;;;;;;;5134479;27;20226;-86
2022/03/19 11:31:03;;;;;;;5.90;4.57;;;;;;;;;;5136770;27;20186;-86
2022/03/19 11:33:32;;;;;;;11.27;6.63;;;;;;;;;;5136291;27;20221;-85
2022/03/19 11:36:09;;;;;;;8.77;6.63;;;;;;;;;;5136561;27;20263;-85
2022/03/19 11:38:41;;;;;;;5.27;4.43;;;;;;;;;;5137002;27;20537;-86
2022/03/19 11:41:23;;;;;;;4.80;4.23;;;;;;;;;;5136589;27;20181;-86
2022/03/19 11:43:51;;;;;;;6.20;4.80;;;;;;;;;;5136669;27;20198;-86
2022/03/19 11:46:18;;;;;;;5.37;4.80;;;;;;;;;;5136843;27;20259;-86
2022/03/19 11:48:50;;;;;;;8.23;5.60;;;;;;;;;;5136233;27;20226;-85
2022/03/19 11:51:23;;;;;;;7.57;4.50;;;;;;;;;;5136353;27;20198;-86
2022/03/19 11:53:51;;;;;;;5.10;4.60;;;;;;;;;;5136329;27;20179;-86
2022/03/19 11:56:19;;;;;;;5.87;5.10;;;;;;;;;;5136543;27;20203;-86
2022/03/19 11:58:47;;;;;;;6.23;5.07;;;;;;;;;;5135913;27;20250;-85
2022/03/19 12:01:14;;;;;;;5.97;5.37;;;;;;;;;;5136173;27;20620;-86
2022/03/19 12:04:13;;;;;;;5.40;4.90;;;;;;;;;;5136034;27;20191;-85
2022/03/19 12:06:51;;;;;;;8.03;4.80;;;;;;;;;;5136364;27;20615;-86
2022/03/19 12:09:18;;;;;;;8.00;5.23;;;;;;;;;;5135691;27;20202;-85
2022/03/19 12:12:07;;;;;;;7.27;5.27;;;;;;;;;;5136261;27;20305;-86
2022/03/19 12:14:34;;;;;;;5.40;4.90;;;;;;;;;;5135808;27;20222;-86
2022/03/19 12:17:16;;;;;;;5.47;4.93;;;;;;;;;;5135977;27;20198;-86
2022/03/19 12:19:54;;;;;;;5.97;5.07;;;;;;;;;;5136126;27;20175;-87
2022/03/19 12:22:33;;;;;;;5.73;4.63;;;;;;;;;;5135748;27;20635;-86
2022/03/19 12:25:13;;;;;;;5.83;4.63;;;;;;;;;;5135535;27;20604;-86
2022/03/19 12:27:41;;;;;;;5.77;4.37;;;;;;;;;;5135649;27;20305;-86
2022/03/19 12:30:09;;;;;;;5.30;4.77;;;;;;;;;;5144694;27;20277;-85
2022/03/19 12:32:54;;;;;;;5.80;4.53;;;;;;;;;;5156283;27;20623;-86
2022/03/19 12:35:23;;;;;;;4.53;3.73;;;;;;;;;;5156139;27;20190;-86
2022/03/19 12:37:52;;;;;;;4.30;3.90;;;;;;;;;;5156559;27;20194;-86
2022/03/19 12:40:21;;;;;;;13.70;9.57;;;;;;;;;;5155143;27;20239;-86
2022/03/19 12:42:53;;;;;;;7.17;5.63;;;;;;;;;;5148926;27;20353;-86
2022/03/19 12:45:21;;;;;;;6.00;5.40;;;;;;;;;;5135264;27;20248;-86
2022/03/19 12:47:52;;;;;;;5.37;4.87;;;;;;;;;;5135202;27;20222;-86
2022/03/19 12:50:19;;;;;;;6.13;5.03;;;;;;;;;;5135080;27;20205;-86
2022/03/19 12:52:48;;;;;;;5.10;4.00;;;;;;;;;;5135062;27;20198;-86
2022/03/19 12:55:22;;;;;;;3.77;3.47;;;;;;;;;;5135176;27;20198;-86
2022/03/19 12:57:57;;;;;;;4.40;4.00;;;;;;;;;;5135029;27;20191;-85
2022/03/19 13:00:25;;;;;;;5.23;4.17;;;;;;;;;;5134938;27;20251;-86
2022/03/19 13:02:53;;;;;;;7.57;4.13;;;;;;;;;;5135074;27;20201;-86
2022/03/19 13:05:20;;;;;;;4.83;4.00;;;;;;;;;;5136630;27;20206;-86
2022/03/19 13:08:09;;;;;;;7.00;4.77;;;;;;;;;;5155610;27;20202;-86
2022/03/19 13:10:42;;;;;;;5.37;4.87;;;;;;;;;;5155600;27;20641;-86
2022/03/19 13:13:10;;;;;;;6.37;5.77;;;;;;;;;;5155365;27;20197;-86
2022/03/19 13:15:37;;;;;;;5.17;4.70;;;;;;;;;;5155194;27;20293;-86
2022/03/19 13:18:05;;;;;;;4.43;4.03;;;;;;;;;;5155368;27;20194;-86
2022/03/19 13:20:32;;;;;;;5.87;5.27;;;;;;;;;;5155000;27;20257;-86
2022/03/19 13:23:01;;;;;;;4.80;4.10;;;;;;;;;;5155853;27;20209;-86
2022/03/19 13:25:31;;;;;;;4.77;4.30;;;;;;;;;;5155227;27;20217;-86
2022/03/19 13:28:07;;;;;;;5.80;4.97;;;;;;;;;;5155089;27;20220;-86
2022/03/19 13:30:34;;;;;;;4.20;3.80;;;;;;;;;;5154820;27;20649;-86
2022/03/19 13:33:02;;;;;;;4.70;4.20;;;;;;;;;;5154893;27;20229;-86
2022/03/19 13:35:39;;;;;;;4.33;3.93;;;;;;;;;;5155019;27;20186;-86
2022/03/19 13:38:11;;;;;;;5.57;4.80;;;;;;;;;;5155225;27;20220;-86
2022/03/19 13:40:40;;;;;;;4.33;3.93;;;;;;;;;;5154921;27;20273;-86
2022/03/19 13:43:08;;;;;;;7.17;5.57;;;;;;;;;;5155067;27;20185;-86
2022/03/19 13:45:35;;;;;;;9.60;6.63;;;;;;;;;;5154697;27;20189;-85
2022/03/19 13:48:04;;;;;;;6.97;5.90;;;;;;;;;;5135067;27;20602;-85
2022/03/19 13:50:31;;;;;;;10.00;6.07;;;;;;;;;;5133045;27;20201;-85
2022/03/19 13:53:00;;;;;;;5.93;4.33;;;;;;;;;;5133252;27;20187;-85
2022/03/19 13:55:40;;;;;;;4.63;4.23;;;;;;;;;;5133477;27;20198;-84
2022/03/19 13:58:09;;;;;;;4.40;3.97;;;;;;;;;;5133876;27;20179;-84
2022/03/19 14:00:39;;;;;;;5.63;4.53;;;;;;;;;;5133263;27;20201;-84
2022/03/19 14:03:08;;;;;;;7.07;4.17;;;;;;;;;;5133584;27;20187;-86
2022/03/19 14:05:37;;;;;;;4.40;4.00;;;;;;;;;;5133263;27;20195;-84
2022/03/19 14:08:06;;;;;;;5.17;4.30;;;;;;;;;;5133485;27;20272;-85
2022/03/19 14:10:35;;;;;;;4.17;3.77;;;;;;;;;;5133039;27;20188;-86
2022/03/19 14:13:07;;;;;;;5.40;3.93;;;;;;;;;;5133347;27;20202;-85
2022/03/19 14:15:39;;;;;;;4.47;4.03;;;;;;;;;;5133222;27;20187;-85
2022/03/19 14:18:06;;;;;;;5.33;3.83;;;;;;;;;;5133712;27;20227;-86
2022/03/19 14:20:33;;;;;;;5.10;4.50;;;;;;;;;;5133297;27;20231;-85
2022/03/19 14:23:00;;;;;;;8.10;4.77;;;;;;;;;;5133513;27;20611;-85
2022/03/19 14:25:28;;;;;;;5.27;4.43;;;;;;;;;;5132958;27;20194;-85
2022/03/19 14:28:07;;;;;;;5.80;5.13;;;;;;;;;;5133114;27;20194;-85
2022/03/19 14:30:35;;;;;;;4.70;4.23;;;;;;;;;;5133012;27;20193;-85
2022/03/19 14:33:02;;;;;;;7.00;4.67;;;;;;;;;;5133081;27;20283;-84
2022/03/19 14:35:49;;;;;;;5.57;4.53;;;;;;;;;;5132790;27;20285;-85
2022/03/19 14:38:19;;;;;;;4.83;4.17;;;;;;;;;;5132791;27;20190;-85
2022/03/19 14:40:47;;;;;;;8.20;5.23;;;;;;;;;;5132799;27;20713;-84
2022/03/19 14:43:16;;;;;;;8.10;5.10;;;;;;;;;;5132900;27;20667;-85
2022/03/19 14:45:45;;;;;;;4.17;3.77;;;;;;;;;;5132756;27;20585;-85
2022/03/19 14:48:12;;;;;;;4.20;3.90;;;;;;;;;;5132825;27;20222;-84
2022/03/19 14:50:40;;;;;;;3.87;3.37;;;;;;;;;;5132472;27;20195;-83
2022/03/19 14:53:08;;;;;;;4.37;3.97;;;;;;;;;;5132615;28;20201;-83
2022/03/19 14:55:35;;;;;;;5.63;4.63;;;;;;;;;;5132479;27;20281;-83
2022/03/19 14:58:02;;;;;;;11.07;5.43;;;;;;;;;;5132482;27;20198;-84
2022/03/19 15:00:32;;;;;;;4.47;3.83;;;;;;;;;;5132323;27;20194;-84
2022/03/19 15:02:59;;;;;;;4.17;3.77;;;;;;;;;;5134804;27;20273;-84
2022/03/19 15:05:27;;;;;;;5.20;3.53;;;;;;;;;;5136756;27;20198;-85
2022/03/19 15:07:54;;;;;;;5.23;4.27;;;;;;;;;;5136983;27;20586;-84
2022/03/19 15:10:21;;;;;;;5.67;4.83;;;;;;;;;;5136546;27;20214;-84
2022/03/19 15:12:48;;;;;;;5.93;4.30;;;;;;;;;;5136801;27;20190;-85